Time;durP1;ratioP1;P1;durP2;ratioP2;P2;SDS_P1;SDS_P2;PMS_P1;PMS_P2;Temp;Humidity;BMP_temperature;BMP_pressure;BME280_temperature;BME280_humidity;BME280_pressure;Samples;Min_cycle;Max_cycle;Signal;HPM_P1;HPM_P2
2021/06/07 00:01:06;;;;;;;46.50;28.73;;;;;;;17.64;81.26;97090.41;5053249;28;20437;-69
2021/06/07 00:03:32;;;;;;;45.30;28.23;;;;;;;17.69;81.07;97095.94;5051782;28;20418;-68
2021/06/07 00:05:58;;;;;;;48.70;28.50;;;;;;;17.91;79.77;97096.56;5052402;28;20955;-68
2021/06/07 00:08:24;;;;;;;50.93;29.40;;;;;;;17.68;80.86;97088.19;5044191;28;20451;-68
2021/06/07 00:10:49;;;;;;;48.07;29.30;;;;;;;17.64;80.85;97085.94;5052436;28;20276;-68
2021/06/07 00:13:16;;;;;;;50.93;30.60;;;;;;;17.73;80.46;97086.56;5052361;28;20183;-68
2021/06/07 00:15:42;;;;;;;50.70;29.57;;;;;;;17.73;80.22;97093.72;5052742;28;20186;-68
2021/06/07 00:18:08;;;;;;;50.70;30.07;;;;;;;17.80;80.29;97090.06;5040150;28;20521;-68
2021/06/07 00:20:40;;;;;;;49.20;29.83;;;;;;;17.89;79.85;97088.03;5051585;28;20576;-68
2021/06/07 00:23:09;;;;;;;52.80;30.00;;;;;;;17.54;81.03;97092.63;5049294;28;20792;-68
2021/06/07 00:25:35;;;;;;;50.47;29.27;;;;;;;18.04;79.13;97095.00;5052883;28;20468;-67
2021/06/07 00:28:01;;;;;;;50.33;29.67;;;;;;;17.98;78.95;97093.97;5051569;28;20426;-69
2021/06/07 00:30:26;;;;;;;43.27;29.10;;;;;;;17.73;79.92;97091.06;5044674;28;20211;-67
2021/06/07 00:32:52;;;;;;;48.63;29.30;;;;;;;17.73;80.15;97097.16;5052596;28;20186;-67
2021/06/07 00:35:22;;;;;;;42.97;27.00;;;;;;;17.66;80.55;97080.44;5052787;28;20205;-67
2021/06/07 00:37:48;;;;;;;45.57;28.73;;;;;;;17.79;79.40;97090.25;5056685;28;20179;-67
2021/06/07 00:40:15;;;;;;;40.90;28.17;;;;;;;17.66;79.76;97086.53;5045354;28;20441;-67
2021/06/07 00:42:40;;;;;;;50.43;28.03;;;;;;;17.50;81.00;97084.28;5051362;28;20258;-67
2021/06/07 00:45:09;;;;;;;51.77;28.87;;;;;;;17.50;81.23;97084.28;5050863;28;20545;-67
2021/06/07 00:47:35;;;;;;;56.30;31.37;;;;;;;17.69;80.82;97084.50;5042484;28;20179;-67
2021/06/07 00:50:00;;;;;;;54.20;29.43;;;;;;;17.45;81.56;97094.66;5052048;28;20432;-67
2021/06/07 00:52:26;;;;;;;51.13;30.07;;;;;;;17.65;81.00;97079.59;5052215;28;20187;-68
2021/06/07 00:54:51;;;;;;;48.23;27.23;;;;;;;17.90;79.61;97091.50;5051756;28;20205;-67
2021/06/07 00:57:17;;;;;;;50.47;29.47;;;;;;;17.74;80.07;97082.09;5050432;28;20274;-67
2021/06/07 00:59:43;;;;;;;48.63;29.43;;;;;;;17.78;80.25;97078.84;5051533;28;20183;-67
2021/06/07 01:02:09;;;;;;;44.57;28.27;;;;;;;17.50;81.76;97084.28;5050464;28;20237;-68
2021/06/07 01:04:35;;;;;;;48.70;29.03;;;;;;;17.61;81.50;97085.50;5050681;28;20179;-69
2021/06/07 01:07:00;;;;;;;54.10;29.90;;;;;;;17.57;81.17;97087.75;5050265;28;20475;-69
2021/06/07 01:09:26;;;;;;;46.00;27.13;;;;;;;17.35;81.50;97087.06;5051757;28;20182;-68
2021/06/07 01:11:51;;;;;;;50.07;27.23;;;;;;;17.45;82.09;97084.84;5036325;28;20553;-68
2021/06/07 01:14:17;;;;;;;49.60;27.50;;;;;;;17.78;80.34;97080.66;5050112;28;20187;-68
2021/06/07 01:16:42;;;;;;;46.23;27.77;;;;;;;17.26;81.92;97075.84;5043344;28;20220;-68
2021/06/07 01:19:08;;;;;;;50.70;28.23;;;;;;;17.41;82.15;97077.50;5046549;28;20252;-67
2021/06/07 01:21:34;;;;;;;46.30;28.70;;;;;;;17.38;82.35;97072.63;5044983;28;20256;-68
2021/06/07 01:24:00;;;;;;;57.97;29.83;;;;;;;17.25;82.86;97074.22;5049536;28;20554;-68
2021/06/07 01:26:26;;;;;;;58.37;29.60;;;;;;;17.65;80.94;97069.00;5051241;28;20460;-68
2021/06/07 01:28:52;;;;;;;52.47;30.57;;;;;;;17.44;82.17;97074.47;5051215;28;20519;-68
2021/06/07 01:31:19;;;;;;;64.17;30.63;;;;;;;17.39;82.40;97074.25;5050995;28;20445;-68
2021/06/07 01:33:48;;;;;;;56.70;29.13;;;;;;;17.42;82.11;97066.72;5051233;28;20799;-68
2021/06/07 01:36:13;;;;;;;54.77;29.10;;;;;;;17.78;80.28;97067.41;5051236;28;20829;-68
2021/06/07 01:38:39;;;;;;;54.70;28.73;;;;;;;17.66;80.62;97062.69;5050488;28;20430;-67
2021/06/07 01:41:07;;;;;;;51.73;29.60;;;;;;;17.41;81.69;97056.31;5048775;28;20242;-68
2021/06/07 01:43:35;;;;;;;56.20;30.27;;;;;;;17.51;81.66;97056.78;5051311;28;20179;-67
2021/06/07 01:46:01;;;;;;;56.63;29.17;;;;;;;17.33;82.84;97055.50;5050415;28;20469;-67
2021/06/07 01:48:27;;;;;;;72.77;31.90;;;;;;;17.26;83.21;97062.63;5032599;28;20810;-67
2021/06/07 01:50:54;;;;;;;59.60;30.27;;;;;;;17.70;80.87;97057.00;5046275;28;20237;-67
2021/06/07 01:53:22;;;;;;;63.50;30.40;;;;;;;17.34;82.33;97043.06;5056189;28;20243;-68
2021/06/07 01:55:51;;;;;;;64.70;30.30;;;;;;;17.50;81.98;97042.69;5052645;28;20483;-68
2021/06/07 01:58:18;;;;;;;59.03;31.10;;;;;;;17.39;82.06;97047.78;5045484;28;20547;-68
2021/06/07 02:00:49;;;;;;;65.60;31.03;;;;;;;17.08;82.95;97046.44;5052659;28;20438;-67
2021/06/07 02:03:16;;;;;;;60.23;30.90;;;;;;;17.37;82.69;97050.59;5044845;28;20473;-68
2021/06/07 02:05:44;;;;;;;68.23;30.23;;;;;;;17.59;81.28;97045.97;5049049;28;20816;-67
2021/06/07 02:08:12;;;;;;;69.30;31.67;;;;;;;17.28;82.69;97046.50;5055323;28;20436;-68
2021/06/07 02:10:41;;;;;;;66.37;32.30;;;;;;;17.49;81.54;97038.41;5042697;28;20835;-66
2021/06/07 02:13:08;;;;;;;65.63;30.63;;;;;;;17.05;83.99;97045.00;5035442;28;20426;-67
2021/06/07 02:15:34;;;;;;;77.83;34.47;;;;;;;17.17;83.83;97040.78;5042954;28;20418;-68
2021/06/07 02:18:04;;;;;;;60.30;31.10;;;;;;;17.42;82.79;97039.41;5034068;28;20424;-69
2021/06/07 02:20:31;;;;;;;69.63;32.20;;;;;;;17.34;83.33;97046.53;5049992;28;20623;-67
2021/06/07 02:22:56;;;;;;;58.90;31.80;;;;;;;17.29;82.56;97050.78;5046896;28;20776;-67
2021/06/07 02:25:22;;;;;;;61.63;32.50;;;;;;;17.38;82.43;97041.66;5049302;28;20456;-68
2021/06/07 02:27:50;;;;;;;73.37;32.10;;;;;;;17.08;83.92;97047.25;5050998;28;20193;-68
2021/06/07 02:30:22;;;;;;;63.70;30.80;;;;;;;17.07;83.57;97050.09;5050793;28;20262;-67
2021/06/07 02:32:47;;;;;;;61.80;32.27;;;;;;;17.30;82.77;97045.28;5037520;28;20423;-67
2021/06/07 02:35:16;;;;;;;74.10;30.80;;;;;;;17.44;81.67;97045.31;5022463;28;20506;-67
2021/06/07 02:37:43;;;;;;;58.63;30.60;;;;;;;17.51;81.64;97051.47;5043184;28;20218;-67
2021/06/07 02:40:12;;;;;;;61.90;30.10;;;;;;;17.59;81.00;97050.44;5048315;28;20429;-68
2021/06/07 02:42:39;;;;;;;62.63;30.60;;;;;;;17.61;80.69;97051.91;5050650;28;20473;-67
2021/06/07 02:45:11;;;;;;;59.83;30.40;;;;;;;17.47;81.48;97056.34;5053913;28;20464;-67
2021/06/07 02:47:37;;;;;;;59.50;29.07;;;;;;;17.50;80.94;97061.25;5041621;28;20504;-68
2021/06/07 02:50:05;;;;;;;60.73;30.63;;;;;;;17.61;80.80;97062.50;5042628;28;20433;-67
2021/06/07 02:52:31;;;;;;;71.73;31.50;;;;;;;17.57;80.39;97055.97;5043870;28;20462;-67
2021/06/07 02:54:56;;;;;;;64.00;30.33;;;;;;;17.53;80.63;97059.22;5045133;28;21162;-68
2021/06/07 02:57:22;;;;;;;62.40;31.47;;;;;;;17.40;81.58;97062.63;5053359;28;20183;-68
2021/06/07 02:59:47;;;;;;;56.87;30.37;;;;;;;17.32;81.54;97055.69;5054348;28;20198;-68
2021/06/07 03:02:13;;;;;;;59.23;31.10;;;;;;;17.37;81.44;97047.97;5047607;28;20558;-68
2021/06/07 03:04:39;;;;;;;62.97;29.77;;;;;;;17.33;81.89;97047.53;5056765;28;20185;-68
2021/06/07 03:07:04;;;;;;;72.73;31.90;;;;;;;17.44;81.56;97051.47;5053520;28;20183;-68
2021/06/07 03:09:30;;;;;;;69.30;32.77;;;;;;;17.40;81.99;97058.16;5053570;28;20193;-68
2021/06/07 03:11:56;;;;;;;61.23;31.50;;;;;;;17.28;82.33;97047.31;5044068;28;20318;-68
2021/06/07 03:14:22;;;;;;;64.67;31.00;;;;;;;17.28;82.05;97057.91;5051629;28;20508;-68
2021/06/07 03:16:48;;;;;;;64.53;32.03;;;;;;;17.40;81.48;97055.50;5043922;28;20551;-68
2021/06/07 03:19:13;;;;;;;66.37;31.70;;;;;;;17.41;81.75;97056.31;5050276;28;20195;-68
2021/06/07 03:21:39;;;;;;;66.87;32.60;;;;;;;17.16;83.09;97059.50;5049285;28;20930;-68
2021/06/07 03:24:04;;;;;;;66.70;32.30;;;;;;;17.24;82.57;97063.81;5052894;28;20179;-68
2021/06/07 03:26:30;;;;;;;69.97;32.53;;;;;;;17.26;82.59;97061.78;5053498;28;20202;-68
2021/06/07 03:28:56;;;;;;;68.00;34.13;;;;;;;17.11;83.52;97056.63;5045526;28;20248;-69
2021/06/07 03:31:23;;;;;;;66.57;32.60;;;;;;;17.03;84.33;97055.78;5053064;28;20202;-68
2021/06/07 03:33:48;;;;;;;68.10;32.60;;;;;;;17.08;84.13;97052.53;5050953;28;20597;-68
2021/06/07 03:36:14;;;;;;;78.40;34.03;;;;;;;17.19;83.04;97057.28;5044504;28;20435;-68
2021/06/07 03:38:39;;;;;;;73.53;34.03;;;;;;;17.19;83.37;97061.75;5039251;28;20209;-69
2021/06/07 03:41:06;;;;;;;80.83;34.67;;;;;;;17.25;82.60;97060.97;5052702;28;20230;-68
2021/06/07 03:43:34;;;;;;;75.80;32.83;;;;;;;17.41;81.97;97066.91;5052823;28;20248;-68
2021/06/07 03:46:00;;;;;;;71.30;33.00;;;;;;;17.32;81.87;97064.44;5052725;28;20453;-67
2021/06/07 03:48:26;;;;;;;66.30;32.40;;;;;;;17.25;82.44;97058.31;5051699;28;20475;-67
2021/06/07 03:50:52;;;;;;;68.20;32.93;;;;;;;17.32;82.39;97064.44;5052958;28;20294;-68
2021/06/07 03:53:18;;;;;;;73.97;33.60;;;;;;;17.26;82.32;97064.44;5050448;28;20273;-68
2021/06/07 03:55:44;;;;;;;70.00;35.03;;;;;;;17.33;82.40;97059.97;5051792;28;20939;-68
2021/06/07 03:58:10;;;;;;;76.83;34.50;;;;;;;17.37;82.14;97060.41;5052254;28;20274;-68
2021/06/07 04:00:37;;;;;;;72.43;33.53;;;;;;;17.14;83.09;97062.34;5052482;28;20473;-69
2021/06/07 04:03:05;;;;;;;71.00;33.57;;;;;;;17.45;81.75;97061.00;5052306;28;20425;-68
2021/06/07 04:05:32;;;;;;;75.20;33.93;;;;;;;17.10;83.05;97060.31;5052445;28;20464;-68
2021/06/07 04:07:58;;;;;;;73.97;35.13;;;;;;;17.12;83.73;97058.28;5045571;28;20517;-68
2021/06/07 04:10:25;;;;;;;66.57;34.10;;;;;;;16.88;84.46;97057.72;5052360;28;20445;-69
2021/06/07 04:12:51;;;;;;;75.07;33.47;;;;;;;17.23;82.61;97060.34;5049663;28;20483;-67
2021/06/07 04:15:22;;;;;;;72.57;35.00;;;;;;;17.28;82.68;97057.91;5031886;28;20420;-68
2021/06/07 04:17:48;;;;;;;73.60;33.93;;;;;;;17.09;83.99;97056.81;5052734;28;20211;-68
2021/06/07 04:20:17;;;;;;;66.47;33.60;;;;;;;17.24;83.60;97055.84;5053890;28;20780;-68
2021/06/07 04:22:44;;;;;;;76.53;33.90;;;;;;;17.25;83.13;97052.19;5049637;28;20262;-69
2021/06/07 04:25:12;;;;;;;74.70;35.47;;;;;;;17.31;83.30;97052.22;5051786;28;20461;-68
2021/06/07 04:27:38;;;;;;;69.70;33.63;;;;;;;16.58;85.86;97058.78;5036862;28;20929;-68
2021/06/07 04:30:08;;;;;;;79.33;35.67;;;;;;;16.95;85.13;97055.97;5051770;28;20854;-67
2021/06/07 04:32:34;;;;;;;75.13;33.83;;;;;;;16.81;85.74;97056.88;5051437;28;20414;-68
2021/06/07 04:35:00;;;;;;;76.80;33.13;;;;;;;17.10;84.80;97057.66;5051993;28;20422;-67
2021/06/07 04:37:29;;;;;;;81.23;35.17;;;;;;;17.18;83.45;97053.00;5044944;28;20421;-68
2021/06/07 04:39:55;;;;;;;79.73;34.83;;;;;;;16.89;85.86;97054.06;5052034;28;20425;-67
2021/06/07 04:42:21;;;;;;;71.33;34.30;;;;;;;17.01;85.29;97047.22;5035298;28;20448;-67
2021/06/07 04:44:49;;;;;;;78.37;35.40;;;;;;;16.90;86.14;97053.03;5052590;28;20513;-67
2021/06/07 04:47:15;;;;;;;74.60;34.77;;;;;;;17.04;85.36;97051.31;5050077;28;20186;-68
2021/06/07 04:49:41;;;;;;;78.93;32.90;;;;;;;16.93;85.92;97055.31;5051948;28;20895;-68
2021/06/07 04:52:06;;;;;;;70.17;32.93;;;;;;;17.08;84.99;97046.44;5041944;28;20211;-68
2021/06/07 04:54:32;;;;;;;73.63;34.47;;;;;;;17.07;85.00;97044.81;5050631;28;20270;-67
2021/06/07 04:56:58;;;;;;;77.17;34.70;;;;;;;16.86;85.96;97046.53;5052250;28;20189;-67
2021/06/07 04:59:23;;;;;;;78.73;35.57;;;;;;;16.99;85.86;97048.44;5051798;28;20616;-67
2021/06/07 05:01:49;;;;;;;68.90;32.33;;;;;;;16.92;85.98;97047.56;5051978;28;20205;-67
2021/06/07 05:04:14;;;;;;;68.13;32.77;;;;;;;17.13;84.96;97050.13;5051481;28;20233;-67
2021/06/07 05:06:40;;;;;;;68.47;29.17;;;;;;;16.91;85.22;97051.22;5030765;28;20211;-67
2021/06/07 05:09:05;;;;;;;69.90;31.53;;;;;;;16.84;86.64;97049.34;5045164;28;20191;-66
2021/06/07 05:11:31;;;;;;;72.77;30.47;;;;;;;17.03;85.61;97047.84;5051651;28;20206;-66
2021/06/07 05:13:57;;;;;;;63.77;31.50;;;;;;;17.00;86.10;97042.97;5051733;28;20191;-67
2021/06/07 05:16:23;;;;;;;57.00;28.30;;;;;;;16.97;85.79;97042.50;5051747;28;20510;-67
2021/06/07 05:18:48;;;;;;;61.80;28.07;;;;;;;16.70;87.62;97039.69;5052121;28;20214;-67
2021/06/07 05:21:14;;;;;;;57.87;28.13;;;;;;;16.84;86.46;97046.69;5047915;28;20723;-67
2021/06/07 05:23:40;;;;;;;56.03;26.40;;;;;;;16.97;86.15;97046.00;5051042;28;20179;-67
2021/06/07 05:26:05;;;;;;;49.57;25.20;;;;;;;17.10;85.54;97049.72;5049885;28;20211;-68
2021/06/07 05:28:31;;;;;;;49.63;26.00;;;;;;;16.94;85.85;97054.31;5052571;28;20187;-68
2021/06/07 05:30:56;;;;;;;47.37;23.60;;;;;;;17.03;85.44;97061.06;5054768;28;20230;-67
2021/06/07 05:33:23;;;;;;;52.43;24.00;;;;;;;16.87;86.49;97056.09;5055718;28;20183;-67
2021/06/07 05:35:51;;;;;;;50.03;24.23;;;;;;;16.88;86.88;97058.53;5055088;28;20213;-67
2021/06/07 05:38:19;;;;;;;51.70;24.03;;;;;;;17.27;84.93;97064.22;5042929;28;20457;-67
2021/06/07 05:40:45;;;;;;;49.10;24.43;;;;;;;17.37;84.47;97068.34;5054139;28;20457;-68
2021/06/07 05:43:11;;;;;;;66.00;30.30;;;;;;;17.09;85.53;97062.13;5053059;28;20417;-68
2021/06/07 05:45:38;;;;;;;78.87;29.70;;;;;;;17.01;86.14;97065.75;5049157;28;20468;-67
2021/06/07 05:48:05;;;;;;;91.63;28.43;;;;;;;16.91;86.21;97057.31;5047891;28;20428;-67
2021/06/07 05:50:34;;;;;;;70.00;28.37;;;;;;;17.19;85.56;97069.69;5052667;28;20457;-67
2021/06/07 05:53:00;;;;;;;99.40;32.20;;;;;;;17.00;85.95;97065.94;5052416;28;20418;-67
2021/06/07 05:55:31;;;;;;;83.83;26.67;;;;;;;16.97;85.96;97072.47;5045267;28;20530;-66
2021/06/07 05:58:00;;;;;;;51.93;22.83;;;;;;;17.05;85.86;97074.13;5045939;28;20451;-68
2021/06/07 06:00:28;;;;;;;76.03;26.53;;;;;;;16.89;86.98;97069.94;5038381;28;20789;-67
2021/06/07 06:02:53;;;;;;;89.10;26.80;;;;;;;16.84;87.11;97075.81;5053685;28;20414;-67
2021/06/07 06:05:19;;;;;;;80.07;25.23;;;;;;;17.13;85.62;97076.59;5052502;28;20462;-67
2021/06/07 06:07:46;;;;;;;87.90;31.70;;;;;;;16.92;86.47;97081.97;5057577;28;20186;-68
2021/06/07 06:10:12;;;;;;;145.33;35.30;;;;;;;17.17;85.76;97074.38;5056342;28;20193;-65
2021/06/07 06:12:38;;;;;;;93.83;24.37;;;;;;;17.13;85.31;97075.78;5046552;28;20475;-67
2021/06/07 06:15:05;;;;;;;74.00;24.03;;;;;;;17.28;84.52;97078.28;5043305;28;20422;-67
2021/06/07 06:17:31;;;;;;;62.23;23.77;;;;;;;17.32;85.44;97085.63;5045057;28;21192;-67
2021/06/07 06:19:56;;;;;;;55.90;23.40;;;;;;;17.09;86.07;97083.28;5057453;28;20437;-67
2021/06/07 06:22:29;;;;;;;82.03;22.57;;;;;;;17.31;85.64;97084.00;5060010;28;20298;-67
2021/06/07 06:24:55;;;;;;;67.97;23.13;;;;;;;17.43;84.61;97091.38;5002314;28;20194;-67
2021/06/07 06:27:21;;;;;;;61.07;21.90;;;;;;;17.44;84.19;97087.72;5059642;28;20417;-68
2021/06/07 06:29:46;;;;;;;117.63;23.37;;;;;;;17.39;84.01;97090.16;5055968;28;20562;-66
2021/06/07 06:32:12;;;;;;;70.13;23.60;;;;;;;17.26;85.09;97080.31;5053562;28;20288;-66
2021/06/07 06:34:39;;;;;;;57.13;24.57;;;;;;;17.27;85.85;97080.09;5048088;28;20179;-66
2021/06/07 06:37:05;;;;;;;88.80;23.53;;;;;;;17.16;86.65;97085.97;5054618;28;20425;-67
2021/06/07 06:39:31;;;;;;;85.60;23.07;;;;;;;17.38;84.92;97091.97;5054043;28;20422;-68
2021/06/07 06:41:56;;;;;;;67.47;25.47;;;;;;;17.58;84.95;97094.69;5054409;28;20364;-67
2021/06/07 06:44:22;;;;;;;57.10;23.97;;;;;;;17.65;84.59;97095.50;5041824;28;20583;-67
2021/06/07 06:46:48;;;;;;;63.70;23.13;;;;;;;17.43;85.20;97107.25;5043723;28;20207;-67
2021/06/07 06:49:13;;;;;;;50.50;23.53;;;;;;;17.31;85.94;97099.91;5054680;28;20187;-67
2021/06/07 06:51:39;;;;;;;103.63;24.40;;;;;;;17.20;85.88;97093.31;5054813;28;20199;-67
2021/06/07 06:54:05;;;;;;;83.57;23.27;;;;;;;16.95;87.89;97100.94;5052504;28;20183;-67
2021/06/07 06:56:31;;;;;;;68.10;22.87;;;;;;;16.99;88.21;97094.25;5053247;28;21010;-67
2021/06/07 06:58:56;;;;;;;86.17;24.80;;;;;;;17.33;86.57;97103.16;5055000;28;20283;-66
2021/06/07 07:01:23;;;;;;;60.07;24.93;;;;;;;17.49;85.16;97098.53;5053518;28;20689;-67
2021/06/07 07:03:50;;;;;;;83.47;24.23;;;;;;;17.10;86.88;97102.66;5054513;28;20244;-67
2021/06/07 07:06:15;;;;;;;51.30;23.10;;;;;;;17.20;87.10;97105.75;5055849;28;20457;-67
2021/06/07 07:08:41;;;;;;;56.70;24.37;;;;;;;17.25;86.65;97105.16;5054910;28;20480;-67
2021/06/07 07:11:06;;;;;;;50.80;23.37;;;;;;;17.34;85.60;97107.44;5054393;28;20207;-67
2021/06/07 07:13:32;;;;;;;51.67;24.67;;;;;;;17.56;84.61;97101.22;5053054;28;20615;-67
2021/06/07 07:15:58;;;;;;;62.47;24.90;;;;;;;17.25;86.65;97098.06;5047845;28;20193;-67
2021/06/07 07:18:24;;;;;;;58.20;24.07;;;;;;;17.68;85.44;97098.78;5053566;28;20278;-68
2021/06/07 07:20:49;;;;;;;43.40;22.20;;;;;;;17.47;85.57;97106.66;5050493;28;20283;-68
2021/06/07 07:23:15;;;;;;;48.73;22.97;;;;;;;17.49;86.12;97099.34;5050621;28;20234;-67
2021/06/07 07:25:41;;;;;;;57.83;24.90;;;;;;;17.28;86.56;97097.63;5048559;28;20222;-67
2021/06/07 07:28:08;;;;;;;72.07;23.67;;;;;;;17.47;86.43;97098.72;5046242;28;20623;-67
2021/06/07 07:30:34;;;;;;;122.70;36.30;;;;;;;17.63;85.46;97100.22;5054740;28;20451;-66
2021/06/07 07:33:01;;;;;;;42.07;22.10;;;;;;;17.77;84.91;97103.69;5055016;28;20528;-66
2021/06/07 07:35:26;;;;;;;45.17;20.40;;;;;;;17.79;84.45;97106.13;5054771;28;20441;-65
2021/06/07 07:37:53;;;;;;;72.67;25.73;;;;;;;17.66;84.55;97104.28;5053085;28;20518;-67
2021/06/07 07:40:21;;;;;;;40.70;19.40;;;;;;;17.64;84.79;97112.41;5055309;28;20594;-66
2021/06/07 07:42:48;;;;;;;54.63;23.40;;;;;;;17.44;85.23;97108.91;5049793;28;20431;-67
2021/06/07 07:45:16;;;;;;;62.57;25.87;;;;;;;17.55;84.90;97116.28;5054849;28;20564;-67
2021/06/07 07:47:41;;;;;;;43.13;21.13;;;;;;;17.99;83.43;97110.72;5048978;28;20417;-68
2021/06/07 07:50:10;;;;;;;44.70;20.73;;;;;;;17.77;83.87;97108.16;5053344;28;21155;-66
2021/06/07 07:52:36;;;;;;;52.00;23.70;;;;;;;17.85;83.47;97115.97;5052702;28;20183;-67
2021/06/07 07:55:03;;;;;;;52.60;21.73;;;;;;;17.64;84.01;97114.25;5053964;28;20513;-67
2021/06/07 07:57:28;;;;;;;34.73;17.77;;;;;;;17.59;85.26;97116.69;5049409;28;20924;-65
2021/06/07 07:59:54;;;;;;;33.37;18.77;;;;;;;17.82;83.99;97116.34;5047993;28;20430;-66
2021/06/07 08:02:20;;;;;;;26.87;16.30;;;;;;;17.69;84.82;97117.16;5053248;28;20245;-68
2021/06/07 08:04:47;;;;;;;28.13;17.63;;;;;;;18.00;82.80;97122.94;5046715;28;20184;-67
2021/06/07 08:07:12;;;;;;;27.50;17.07;;;;;;;18.01;83.18;97124.59;5051746;28;20183;-68
2021/06/07 08:09:38;;;;;;;33.57;17.33;;;;;;;18.02;82.89;97118.25;5052576;28;21125;-68
2021/06/07 08:12:04;;;;;;;26.60;16.53;;;;;;;18.14;82.49;97124.59;5052931;28;20206;-69
2021/06/07 08:14:30;;;;;;;29.83;17.27;;;;;;;18.00;83.17;97122.94;5043799;28;20183;-66
2021/06/07 08:16:57;;;;;;;26.87;16.60;;;;;;;17.92;83.14;97123.91;5045742;28;20488;-68
2021/06/07 08:19:23;;;;;;;26.93;16.60;;;;;;;18.25;81.50;97118.69;5056884;28;20429;-67
2021/06/07 08:21:49;;;;;;;25.17;17.27;;;;;;;18.11;82.35;97117.03;5049735;28;20446;-66
2021/06/07 08:24:15;;;;;;;26.10;15.97;;;;;;;18.26;82.29;97117.66;5053035;28;20433;-68
2021/06/07 08:26:41;;;;;;;25.40;15.00;;;;;;;18.23;81.71;97118.06;5053049;28;20209;-67
2021/06/07 08:29:10;;;;;;;23.63;16.50;;;;;;;18.04;83.72;97121.50;5044062;28;20550;-67
2021/06/07 08:31:39;;;;;;;25.80;16.03;;;;;;;17.91;83.12;97116.97;5051216;28;20959;-66
2021/06/07 08:34:05;;;;;;;23.57;16.73;;;;;;;17.73;84.26;97118.38;5050308;28;20421;-67
2021/06/07 08:36:31;;;;;;;29.53;15.80;;;;;;;17.98;83.78;97114.38;5041120;28;20422;-67
2021/06/07 08:38:57;;;;;;;25.13;16.60;;;;;;;17.92;84.39;97115.97;5048500;28;20421;-67
2021/06/07 08:41:23;;;;;;;22.80;16.13;;;;;;;17.99;84.16;97108.06;5051521;28;20453;-66
2021/06/07 08:43:49;;;;;;;23.60;15.47;;;;;;;18.08;83.42;97110.28;5050683;28;20428;-69
2021/06/07 08:46:14;;;;;;;21.97;14.67;;;;;;;18.20;82.91;97110.50;5044602;28;20370;-69
2021/06/07 08:48:40;;;;;;;20.23;13.50;;;;;;;18.66;81.36;97111.53;5046161;28;20188;-67
2021/06/07 08:51:06;;;;;;;16.70;11.63;;;;;;;18.32;81.62;97113.38;5040657;28;20208;-67
2021/06/07 08:53:32;;;;;;;18.63;11.97;;;;;;;18.39;81.75;97118.69;5048060;28;20268;-67
2021/06/07 08:55:59;;;;;;;17.23;11.60;;;;;;;18.75;79.40;97121.91;5030881;28;20479;-69
2021/06/07 08:58:25;;;;;;;15.17;11.57;;;;;;;18.84;79.33;97124.16;5044696;28;20194;-68
2021/06/07 09:00:51;;;;;;;13.13;9.20;;;;;;;19.27;77.48;97117.53;5052518;28;20452;-66
2021/06/07 09:03:20;;;;;;;16.27;10.53;;;;;;;19.32;77.13;97119.53;5051239;28;20433;-68
2021/06/07 09:05:52;;;;;;;11.80;9.07;;;;;;;19.05;76.98;97129.44;5052285;28;20214;-67
2021/06/07 09:08:17;;;;;;;14.90;8.90;;;;;;;19.14;77.15;97128.19;5052386;28;20433;-69
2021/06/07 09:10:46;;;;;;;10.43;8.47;;;;;;;19.00;77.04;97132.72;5049179;28;20493;-67
2021/06/07 09:13:15;;;;;;;9.87;8.73;;;;;;;18.82;77.62;97136.00;5049727;28;20183;-69
2021/06/07 09:15:47;;;;;;;10.30;8.80;;;;;;;18.92;77.13;97131.09;5050381;28;20428;-68
2021/06/07 09:18:40;;;;;;;12.67;9.40;;;;;;;18.93;77.35;97124.75;5048809;28;20428;-69
2021/06/07 09:21:13;;;;;;;13.73;10.37;;;;;;;18.96;77.37;97127.03;5047318;28;20451;-68
2021/06/07 09:23:42;;;;;;;12.03;10.07;;;;;;;18.96;77.73;97126.19;5051994;28;20436;-67
2021/06/07 09:26:26;;;;;;;12.77;10.00;;;;;;;19.06;77.75;97126.56;5050801;28;20461;-69
2021/06/07 09:28:54;;;;;;;13.50;10.67;;;;;;;18.96;77.49;97127.03;5051878;28;20422;-69
2021/06/07 09:31:31;;;;;;;15.07;11.80;;;;;;;18.78;78.77;97124.97;5051342;28;20476;-67
2021/06/07 09:33:59;;;;;;;14.00;12.10;;;;;;;18.86;78.27;97126.59;5051185;28;20767;-66
2021/06/07 09:36:29;;;;;;;16.83;12.60;;;;;;;18.86;78.25;97127.41;5035461;28;20767;-68
2021/06/07 09:39:08;;;;;;;17.33;12.03;;;;;;;19.05;77.13;97130.25;5043970;28;20449;-67
2021/06/07 09:42:05;;;;;;;15.20;11.63;;;;;;;19.33;76.42;97129.97;5037051;28;20517;-68
2021/06/07 09:44:41;;;;;;;18.67;13.40;;;;;;;19.29;76.18;97134.06;5036835;28;20425;-67
2021/06/07 09:47:17;;;;;;;19.40;14.13;;;;;;;18.96;77.94;97128.84;5043830;28;20534;-68
2021/06/07 09:49:50;;;;;;;29.50;14.03;;;;;;;18.85;77.96;97136.41;5051183;28;20428;-66
2021/06/07 09:52:25;;;;;;;20.27;14.30;;;;;;;19.19;77.25;97142.47;5051558;28;20446;-67
2021/06/07 09:55:09;;;;;;;19.30;14.77;;;;;;;19.06;77.61;97142.50;5055089;28;20424;-67
2021/06/07 09:57:44;;;;;;;23.40;14.50;;;;;;;19.12;77.02;97141.69;5042293;28;20424;-68
2021/06/07 10:00:10;;;;;;;23.00;15.50;;;;;;;19.24;77.51;97139.19;5053925;28;20807;-67
2021/06/07 10:02:37;;;;;;;20.13;15.80;;;;;;;19.09;77.56;97142.09;5055174;28;20444;-68
2021/06/07 10:05:04;;;;;;;25.50;16.13;;;;;;;18.78;79.82;97146.19;5055024;28;20655;-68
2021/06/07 10:07:30;;;;;;;26.50;16.33;;;;;;;18.78;79.66;97145.41;5055304;28;20516;-66
2021/06/07 10:10:18;;;;;;;23.60;17.00;;;;;;;19.07;78.92;97140.69;5055668;28;20958;-67
2021/06/07 10:12:45;;;;;;;22.10;15.90;;;;;;;19.12;77.33;97141.69;5045436;28;20206;-67
2021/06/07 10:15:33;;;;;;;22.97;15.80;;;;;;;19.32;76.90;97135.47;5055678;28;20453;-68
2021/06/07 10:18:00;;;;;;;26.20;17.00;;;;;;;19.54;76.12;97133.34;5040561;28;20445;-68
2021/06/07 10:22:52;;;;;;;27.20;18.63;;;;;;;19.45;76.94;97127.47;5060023;28;20428;-68
2021/06/07 10:25:17;;;;;;;26.20;17.33;;;;;;;19.25;77.89;97132.06;5052484;28;20662;-67
2021/06/07 10:27:43;;;;;;;33.33;18.00;;;;;;;19.26;78.66;97133.69;5055984;28;20186;-67
2021/06/07 10:30:18;;;;;;;28.67;18.10;;;;;;;19.16;78.66;97136.78;5055423;28;20248;-67
2021/06/07 10:32:44;;;;;;;27.03;18.73;;;;;;;19.45;77.58;97132.78;5056413;28;20174;-66
2021/06/07 10:35:11;;;;;;;24.70;17.80;;;;;;;19.32;78.33;97128.34;5059328;28;20508;-67
2021/06/07 10:37:57;;;;;;;26.47;17.57;;;;;;;19.59;76.62;97127.41;5064435;28;20425;-69
2021/06/07 10:40:24;;;;;;;23.00;17.00;;;;;;;19.28;78.22;97131.63;5049641;28;20445;-70
2021/06/07 10:43:03;;;;;;;24.90;18.50;;;;;;;19.62;76.23;97134.97;5048778;28;20422;-67
2021/06/07 10:45:31;;;;;;;21.90;16.73;;;;;;;19.74;75.65;97130.59;5050959;28;20544;-68
2021/06/07 10:47:58;;;;;;;33.83;18.17;;;;;;;19.35;76.84;97140.38;5040074;28;20450;-67
2021/06/07 10:50:28;;;;;;;26.27;18.20;;;;;;;19.46;76.84;97126.44;5055096;28;20417;-70
2021/06/07 10:53:01;;;;;;;21.70;17.20;;;;;;;19.12;78.52;97141.69;5053162;28;20454;-69
2021/06/07 10:55:33;;;;;;;24.90;17.43;;;;;;;19.70;75.92;97133.91;5037376;28;20467;-67
2021/06/07 10:58:05;;;;;;;22.30;16.10;;;;;;;19.66;75.65;97138.81;5054273;28;20417;-66
2021/06/07 11:00:38;;;;;;;26.33;17.70;;;;;;;19.65;75.48;97145.19;5049660;28;20499;-67
2021/06/07 11:03:20;;;;;;;22.53;17.50;;;;;;;19.41;76.60;97139.53;5050655;28;20450;-67
2021/06/07 11:05:48;;;;;;;23.03;17.13;;;;;;;19.53;76.44;97141.56;5040539;28;20851;-66
2021/06/07 11:08:25;;;;;;;25.53;18.07;;;;;;;19.19;77.93;97145.13;5050745;28;20419;-68
2021/06/07 11:11:10;;;;;;;25.27;18.83;;;;;;;19.62;76.02;97130.44;5053609;28;20461;-67
2021/06/07 11:13:51;;;;;;;24.03;17.13;;;;;;;19.67;76.14;97137.78;5040078;28;20448;-67
2021/06/07 11:16:31;;;;;;;20.57;16.70;;;;;;;19.98;74.46;97144.19;5052802;28;20422;-68
2021/06/07 11:19:03;;;;;;;26.03;17.70;;;;;;;19.58;75.84;97131.09;5053851;28;20428;-68
2021/06/07 11:21:51;;;;;;;17.80;15.90;;;;;;;19.36;77.11;97147.34;5032014;28;20977;-66